Terminal Aerodrome Forecast
Issued by NWS

Home | Current Version | Previous Version | Text Only | Print | Product List | Glossary On
Versions: 1 2 3 4 5 6 7 8 9 10 11 12 13 14 15 16 17 18 19 20 21 22
678
FTUS44 KTSA 181125
TAFFYV
TAF
KFYV 181125Z 1812/1912 VRB03KT P6SM SCT015 BKN040
      TEMPO 1812/1816 3SM BR BKN012
     FM181600 22007KT P6SM SCT020 BKN250
     FM190300 21003KT P6SM SCT040 OVC250 PROB30 1904/1910 3SM -TSRA
      BKN025CB=

USA.gov is the U.S. government's official web portal to all federal, state and local government web resources and services.